Time;durP1;ratioP1;P1;durP2;ratioP2;P2;SDS_P1;SDS_P2;PMS_P1;PMS_P2;Temp;Humidity;BMP_temperature;BMP_pressure;BME280_temperature;BME280_humidity;BME280_pressure;Samples;Min_cycle;Max_cycle;Signal;HPM_P1;HPM_P2
2021/06/16 00:01:41;;;;;;;9.68;4.57;;;;;;;19.39;58.82;100207.03;5055489;28;20065;-72
2021/06/16 00:04:10;;;;;;;8.40;4.20;;;;;;;19.43;58.24;100208.44;5055661;28;20075;-72
2021/06/16 00:06:38;;;;;;;9.02;4.82;;;;;;;19.25;60.02;100212.94;5055084;28;20049;-72
2021/06/16 00:09:07;;;;;;;9.27;5.13;;;;;;;19.11;61.30;100208.88;5055353;28;20063;-73
2021/06/16 00:11:36;;;;;;;7.18;5.15;;;;;;;19.06;61.77;100211.16;5054883;28;20057;-72
2021/06/16 00:14:06;;;;;;;9.57;5.03;;;;;;;19.12;62.63;100207.88;5055172;28;20081;-72
2021/06/16 00:16:34;;;;;;;9.23;5.30;;;;;;;19.09;62.75;100208.16;5054247;28;20053;-72
2021/06/16 00:19:03;;;;;;;8.27;5.13;;;;;;;18.99;62.79;100210.03;5055372;28;20440;-74
2021/06/16 00:21:32;;;;;;;12.23;5.22;;;;;;;19.06;62.66;100216.56;5055277;28;20033;-72
2021/06/16 00:24:01;;;;;;;10.05;4.95;;;;;;;18.93;63.17;100219.59;5055100;28;20053;-71
2021/06/16 00:26:29;;;;;;;8.05;4.75;;;;;;;18.95;63.35;100219.44;5055304;28;20041;-71
2021/06/16 00:28:57;;;;;;;7.57;4.65;;;;;;;18.81;63.96;100218.06;5054616;28;20051;-71
2021/06/16 00:31:28;;;;;;;10.55;5.07;;;;;;;18.74;64.21;100228.59;5055287;28;20128;-70
2021/06/16 00:33:56;;;;;;;7.32;4.47;;;;;;;18.71;64.20;100215.38;5054763;28;20048;-69
2021/06/16 00:36:24;;;;;;;12.00;5.47;;;;;;;18.60;65.09;100210.09;5054965;28;20045;-72
2021/06/16 00:38:53;;;;;;;8.43;4.90;;;;;;;18.47;65.83;100217.66;5054443;28;20049;-73
2021/06/16 00:41:21;;;;;;;7.75;4.80;;;;;;;18.39;66.75;100210.28;5054826;28;20041;-73
2021/06/16 00:43:49;;;;;;;8.60;5.03;;;;;;;18.27;67.03;100220.38;5054573;28;20443;-72
2021/06/16 00:46:18;;;;;;;7.35;4.88;;;;;;;18.51;65.57;100214.50;5054719;28;20059;-71
2021/06/16 00:48:48;;;;;;;9.85;5.00;;;;;;;18.45;65.58;100223.22;5054311;28;20041;-71
2021/06/16 00:51:16;;;;;;;7.65;4.90;;;;;;;18.28;66.34;100213.97;5054573;28;20460;-72
2021/06/16 00:53:44;;;;;;;7.38;5.00;;;;;;;18.16;66.88;100223.22;5054401;28;20045;-70
2021/06/16 00:56:13;;;;;;;9.23;5.47;;;;;;;18.45;65.70;100219.66;5054447;28;20041;-70
2021/06/16 00:58:42;;;;;;;7.10;5.03;;;;;;;18.35;65.86;100216.13;5054151;28;20048;-70
2021/06/16 01:01:14;;;;;;;9.68;5.10;;;;;;;18.38;65.85;100218.53;5054416;28;20094;-70
2021/06/16 01:03:44;;;;;;;;;;;;;;;18.47;65.60;100214.97;5054550;28;20046;-71
2021/06/16 01:06:23;;;;;;;8.55;5.32;;;;;;;18.34;66.68;100214.41;5054353;28;19971;-71
2021/06/16 01:08:59;;;;;;;8.90;5.35;;;;;;;18.46;66.09;100208.72;5054024;28;20045;-71
2021/06/16 01:11:29;;;;;;;9.30;5.30;;;;;;;18.28;66.83;100216.69;5054247;28;20166;-71
2021/06/16 01:14:06;;;;;;;8.20;4.80;;;;;;;18.16;67.82;100214.28;5054047;28;20466;-71
2021/06/16 01:16:39;;;;;;;8.52;4.90;;;;;;;18.26;67.06;100210.56;5054196;28;20397;-71
2021/06/16 01:19:11;;;;;;;;;;;;;;;18.25;66.92;100211.56;5054554;28;20120;-70
2021/06/16 01:21:46;;;;;;;9.80;5.32;;;;;;;18.10;67.74;100221.06;5053715;28;19924;-71
2021/06/16 01:24:19;;;;;;;11.48;5.72;;;;;;;18.01;68.28;100213.81;5054127;28;20047;-71
2021/06/16 01:26:54;;;;;;;9.50;5.53;;;;;;;17.93;69.05;100219.06;5052443;28;20107;-71
2021/06/16 01:29:26;;;;;;;8.73;5.18;;;;;;;17.94;69.08;100218.91;5054003;28;20433;-71
2021/06/16 01:31:55;;;;;;;7.55;5.25;;;;;;;18.09;68.18;100222.06;5053837;28;20440;-70
2021/06/16 01:34:25;;;;;;;8.88;5.50;;;;;;;18.12;68.21;100221.78;5053843;28;20051;-70
2021/06/16 01:36:56;;;;;;;9.40;5.30;;;;;;;18.15;67.84;100216.13;5053442;28;20478;-70
2021/06/16 01:39:29;;;;;;;10.77;5.57;;;;;;;18.14;68.31;100219.78;5053782;28;20094;-70
2021/06/16 01:42:00;;;;;;;;;;;;;;;17.98;69.03;100224.91;5053936;28;20049;-76
2021/06/16 01:44:29;;;;;;;10.25;5.45;;;;;;;17.84;69.50;100228.84;5054011;28;19920;-76
2021/06/16 01:46:58;;;;;;;9.35;5.47;;;;;;;17.68;70.01;100231.22;5053468;28;20271;-75
2021/06/16 01:49:28;;;;;;;10.02;5.57;;;;;;;17.77;69.90;100229.56;5053403;28;20076;-74
2021/06/16 01:51:58;;;;;;;8.85;5.32;;;;;;;17.74;69.92;100236.91;5053136;28;20041;-75
2021/06/16 01:54:28;;;;;;;9.20;5.45;;;;;;;17.76;69.69;100219.75;5053569;28;20048;-72
2021/06/16 01:56:59;;;;;;;8.68;5.47;;;;;;;17.63;70.14;100226.22;5052643;28;20059;-71
2021/06/16 01:59:28;;;;;;;7.95;5.20;;;;;;;17.62;70.27;100229.91;5053485;28;20102;-70
2021/06/16 02:01:56;;;;;;;8.48;5.40;;;;;;;17.60;70.39;100231.91;5052937;28;20473;-70
2021/06/16 02:04:25;;;;;;;10.82;5.70;;;;;;;17.27;71.75;100224.94;5053659;28;20049;-70
2021/06/16 02:07:02;;;;;;;7.30;5.30;;;;;;;17.40;70.95;100224.75;5053139;28;20072;-71
2021/06/16 02:09:33;;;;;;;11.05;5.50;;;;;;;17.27;71.85;100229.50;5053402;28;20537;-70
2021/06/16 02:12:04;;;;;;;8.90;5.40;;;;;;;17.30;71.57;100229.25;5052956;28;20041;-70
2021/06/16 02:14:34;;;;;;;10.13;6.03;;;;;;;17.22;72.14;100238.00;5053323;28;20079;-71
2021/06/16 02:17:08;;;;;;;8.82;5.03;;;;;;;17.16;72.54;100239.38;5053007;28;20041;-71
2021/06/16 02:19:38;;;;;;;9.15;5.57;;;;;;;17.03;73.07;100227.97;5053247;28;20059;-71
2021/06/16 02:22:07;;;;;;;7.72;5.60;;;;;;;17.06;72.99;100232.25;5053172;28;20045;-73
2021/06/16 02:24:37;;;;;;;11.75;5.75;;;;;;;17.02;73.32;100225.41;5056330;28;20048;-72
2021/06/16 02:27:08;;;;;;;10.27;6.03;;;;;;;17.05;73.15;100215.22;5053465;28;20079;-72
2021/06/16 02:29:37;;;;;;;9.38;5.57;;;;;;;16.99;73.68;100215.78;5053341;28;20041;-73
2021/06/16 02:32:06;;;;;;;7.43;5.40;;;;;;;16.94;73.88;100218.00;5052604;28;20505;-73
2021/06/16 02:34:34;;;;;;;9.98;5.97;;;;;;;16.93;73.92;100226.22;5053008;28;20048;-72
2021/06/16 02:37:06;;;;;;;9.25;5.60;;;;;;;16.97;73.65;100231.19;5052478;28;20044;-71
2021/06/16 02:39:39;;;;;;;10.70;5.65;;;;;;;16.76;74.74;100225.84;5052836;28;20037;-71
2021/06/16 02:42:11;;;;;;;11.88;6.15;;;;;;;16.89;73.89;100222.97;5052874;28;20098;-71
2021/06/16 02:44:42;;;;;;;8.95;5.78;;;;;;;16.77;74.26;100238.31;5053023;28;20041;-71
2021/06/16 02:47:13;;;;;;;10.55;6.15;;;;;;;16.72;74.72;100240.56;5052487;28;20492;-71
2021/06/16 02:49:45;;;;;;;11.68;6.50;;;;;;;16.77;74.30;100242.84;5052871;28;20045;-73
2021/06/16 02:52:16;;;;;;;12.60;6.00;;;;;;;16.80;73.97;100242.59;5052944;28;20041;-73
2021/06/16 02:54:49;;;;;;;9.43;6.20;;;;;;;16.83;73.82;100231.56;5052638;28;20115;-74
2021/06/16 02:57:22;;;;;;;8.98;6.00;;;;;;;16.90;73.66;100238.13;5052925;28;20045;-71
2021/06/16 02:59:51;;;;;;;;;;;;;;;16.79;73.66;100230.09;5051493;28;20059;-73
2021/06/16 03:02:22;;;;;;;9.50;6.05;;;;;;;16.96;72.99;100247.50;5052547;28;19962;-74
2021/06/16 03:04:52;;;;;;;9.07;5.60;;;;;;;17.15;71.52;100243.06;5052243;28;20516;-74
2021/06/16 03:07:22;;;;;;;10.43;5.60;;;;;;;17.38;70.32;100248.28;5052347;28;20049;-74
2021/06/16 03:09:51;;;;;;;9.88;5.93;;;;;;;17.24;70.42;100249.50;5054132;28;20478;-73
2021/06/16 03:12:23;;;;;;;7.75;5.47;;;;;;;17.17;71.03;100246.47;5056581;28;20045;-73
2021/06/16 03:14:52;;;;;;;12.90;5.78;;;;;;;17.29;70.91;100249.09;5056157;28;20045;-74
2021/06/16 03:17:22;;;;;;;11.07;5.65;;;;;;;17.32;70.65;100248.81;5056675;28;20041;-73
2021/06/16 03:19:50;;;;;;;11.75;5.75;;;;;;;17.38;70.15;100254.53;5056196;28;20577;-73
2021/06/16 03:22:20;;;;;;;8.43;5.85;;;;;;;17.35;70.76;100253.94;5056388;28;20124;-74
2021/06/16 03:24:50;;;;;;;11.95;5.82;;;;;;;17.44;70.49;100253.13;5055962;28;20132;-75
2021/06/16 03:27:22;;;;;;;11.65;6.00;;;;;;;17.72;69.54;100251.53;5056154;28;20052;-74
2021/06/16 03:29:53;;;;;;;9.50;5.70;;;;;;;17.78;69.36;100248.31;5056146;28;20083;-74
2021/06/16 03:32:24;;;;;;;7.22;5.07;;;;;;;18.06;68.38;100254.75;5056343;28;20048;-74
2021/06/16 03:34:52;;;;;;;10.88;5.25;;;;;;;18.45;66.80;100252.91;5055750;28;20047;-74
2021/06/16 03:37:22;;;;;;;8.35;5.35;;;;;;;19.31;63.64;100256.47;5056108;28;20099;-73
2021/06/16 03:39:52;;;;;;;9.98;4.90;;;;;;;20.08;61.24;100251.69;5055511;28;20068;-73
2021/06/16 03:42:23;;;;;;;7.97;5.15;;;;;;;20.73;58.03;100252.28;5056192;28;20474;-73
2021/06/16 03:44:54;;;;;;;8.90;5.35;;;;;;;20.92;56.92;100256.66;5055719;28;20061;-74
2021/06/16 03:47:24;;;;;;;10.00;5.28;;;;;;;21.11;56.19;100249.16;5055786;28;20516;-72
2021/06/16 03:49:54;;;;;;;10.52;5.18;;;;;;;20.86;57.32;100260.88;5055489;28;20051;-74
2021/06/16 03:52:23;;;;;;;8.77;5.13;;;;;;;20.97;56.97;100266.03;5055606;28;20041;-74
2021/06/16 03:54:53;;;;;;;10.93;5.20;;;;;;;20.68;57.87;100266.31;5055395;28;20464;-74
2021/06/16 03:57:23;;;;;;;8.45;5.22;;;;;;;20.94;56.82;100268.19;5054454;28;20045;-73
2021/06/16 03:59:54;;;;;;;10.88;5.45;;;;;;;22.00;54.08;100264.19;5055524;28;20474;-70
2021/06/16 04:02:23;;;;;;;9.63;4.85;;;;;;;22.43;52.46;100264.97;5055590;28;20048;-71
2021/06/16 04:04:52;;;;;;;9.68;4.93;;;;;;;22.84;51.72;100269.44;5055156;28;20140;-71
2021/06/16 04:07:22;;;;;;;9.05;5.00;;;;;;;23.30;50.57;100264.25;5055409;28;20409;-71
2021/06/16 04:09:54;;;;;;;;;;;;;;;23.63;49.21;100269.63;5055751;28;20136;-71
2021/06/16 04:12:24;;;;;;;11.20;4.72;;;;;;;23.85;48.39;100268.88;5055513;28;20285;-71
2021/06/16 04:14:53;;;;;;;9.27;4.55;;;;;;;24.07;47.92;100272.66;5055162;28;20442;-72
2021/06/16 04:17:23;;;;;;;8.57;4.13;;;;;;;23.42;48.11;100273.75;5055213;28;20045;-71
2021/06/16 04:19:53;;;;;;;7.50;4.57;;;;;;;24.21;47.11;100269.16;5054587;28;20048;-72
2021/06/16 04:22:22;;;;;;;9.35;4.43;;;;;;;24.16;46.63;100276.19;5055234;28;20096;-71
2021/06/16 04:24:50;;;;;;;8.35;4.25;;;;;;;24.08;47.35;100268.91;5055004;28;20442;-72
2021/06/16 04:27:18;;;;;;;10.70;4.40;;;;;;;23.86;47.00;100270.56;5054907;28;20045;-71
2021/06/16 04:29:48;;;;;;;9.30;4.38;;;;;;;24.14;46.29;100278.25;5055022;28;20049;-70
2021/06/16 04:32:17;;;;;;;7.38;4.28;;;;;;;24.23;45.72;100269.84;5054873;28;20072;-74
2021/06/16 04:34:45;;;;;;;8.07;4.20;;;;;;;24.07;46.44;100266.38;5054975;28;20047;-73
2021/06/16 04:37:14;;;;;;;9.88;4.28;;;;;;;24.23;46.17;100272.56;5054683;28;20471;-71
2021/06/16 04:39:44;;;;;;;8.25;4.22;;;;;;;24.76;44.95;100278.16;5054716;28;20045;-70
2021/06/16 04:42:12;;;;;;;9.68;4.22;;;;;;;25.14;44.00;100276.31;5054440;28;20505;-70
2021/06/16 04:44:40;;;;;;;8.90;4.10;;;;;;;25.79;42.76;100280.22;5054360;28;20041;-70
2021/06/16 04:47:11;;;;;;;7.03;3.83;;;;;;;26.41;41.21;100268.78;5054158;28;20059;-70
2021/06/16 04:49:39;;;;;;;7.88;3.85;;;;;;;26.62;40.05;100278.88;5054654;28;20051;-70
2021/06/16 04:52:08;;;;;;;8.65;4.20;;;;;;;27.06;39.09;100273.19;5054162;28;20066;-70
2021/06/16 04:54:36;;;;;;;6.47;3.60;;;;;;;27.33;38.27;100286.03;5054717;28;20069;-70
2021/06/16 04:57:05;;;;;;;7.50;3.53;;;;;;;27.60;36.99;100278.84;5054124;28;20055;-75
2021/06/16 04:59:34;;;;;;;7.13;3.67;;;;;;;27.49;38.32;100275.78;5054265;28;20124;-74
2021/06/16 05:02:03;;;;;;;5.78;3.65;;;;;;;27.75;36.89;100284.19;5054266;28;20045;-74
2021/06/16 05:04:33;;;;;;;6.75;3.65;;;;;;;27.88;36.85;100278.75;5054410;28;20037;-74
2021/06/16 05:07:02;;;;;;;8.23;3.88;;;;;;;28.25;36.21;100273.84;5054208;28;20048;-74
2021/06/16 05:09:30;;;;;;;6.88;3.85;;;;;;;28.41;36.02;100283.63;5054569;28;20039;-74
2021/06/16 05:11:58;;;;;;;6.13;3.38;;;;;;;28.43;35.26;100279.63;5054027;28;20496;-73
2021/06/16 05:14:26;;;;;;;9.15;3.58;;;;;;;28.99;33.95;100293.00;5054216;28;20529;-73
2021/06/16 05:16:55;;;;;;;7.68;3.67;;;;;;;28.94;34.06;100290.03;5053986;28;20049;-73
2021/06/16 05:19:24;;;;;;;4.95;3.10;;;;;;;28.77;33.76;100297.00;5054377;28;20045;-73
2021/06/16 05:21:54;;;;;;;6.65;3.03;;;;;;;29.15;33.86;100296.41;5053953;28;20111;-71
2021/06/16 05:24:23;;;;;;;8.02;3.22;;;;;;;29.23;32.84;100294.25;5054319;28;20092;-69
2021/06/16 05:26:51;;;;;;;6.88;3.40;;;;;;;29.88;32.44;100295.19;5054309;28;20402;-70
2021/06/16 05:29:20;;;;;;;5.75;3.00;;;;;;;29.54;31.46;100295.53;5053823;28;20045;-70
2021/06/16 05:31:48;;;;;;;7.40;2.95;;;;;;;29.98;31.64;100289.22;5053237;28;20049;-69
2021/06/16 05:34:16;;;;;;;7.07;3.30;;;;;;;30.10;31.81;100284.75;5053493;28;20053;-70
2021/06/16 05:36:44;;;;;;;5.90;3.08;;;;;;;30.18;31.12;100280.91;5053553;28;20442;-71
2021/06/16 05:39:14;;;;;;;5.38;2.70;;;;;;;30.55;29.94;100290.22;5053614;28;20043;-69
2021/06/16 05:41:42;;;;;;;5.75;3.00;;;;;;;30.49;29.48;100286.44;5053880;28;20041;-68
2021/06/16 05:44:11;;;;;;;6.53;2.90;;;;;;;31.16;28.59;100280.47;5052673;28;20049;-70
2021/06/16 05:46:39;;;;;;;5.95;3.05;;;;;;;31.09;29.70;100277.78;5052948;28;20052;-69
2021/06/16 05:49:08;;;;;;;4.85;2.97;;;;;;;30.60;30.25;100287.69;5053435;28;20041;-68
2021/06/16 05:51:36;;;;;;;6.85;2.92;;;;;;;30.76;30.00;100289.06;5053776;28;20064;-69
2021/06/16 05:54:09;;;;;;;4.78;2.78;;;;;;;31.48;29.04;100286.75;5053428;28;20045;-69
2021/06/16 05:56:40;;;;;;;7.18;3.08;;;;;;;31.45;29.06;100284.44;5053993;28;20053;-69
2021/06/16 05:59:09;;;;;;;6.95;3.40;;;;;;;31.41;29.48;100285.97;5054236;28;20045;-68
2021/06/16 06:01:37;;;;;;;6.10;3.08;;;;;;;31.89;27.52;100289.69;5053683;28;20440;-70
2021/06/16 06:04:07;;;;;;;6.32;2.85;;;;;;;31.80;27.65;100291.09;5053047;28;20574;-70
2021/06/16 06:06:36;;;;;;;7.65;2.85;;;;;;;31.80;27.60;100285.56;5053269;28;20041;-70
2021/06/16 06:09:06;;;;;;;5.68;2.63;;;;;;;31.12;28.67;100298.53;5053113;28;20119;-71
2021/06/16 06:11:36;;;;;;;6.22;2.60;;;;;;;31.19;27.65;100293.81;5053244;28;20041;-70
2021/06/16 06:14:07;;;;;;;6.28;3.00;;;;;;;31.74;27.25;100286.44;5053137;28;20159;-72
2021/06/16 06:16:35;;;;;;;7.63;3.13;;;;;;;31.62;27.95;100291.88;5053558;28;20041;-70
2021/06/16 06:19:04;;;;;;;5.95;2.83;;;;;;;31.18;27.90;100295.72;5053059;28;20056;-73
2021/06/16 06:21:32;;;;;;;5.95;2.75;;;;;;;31.38;27.66;100289.19;5053204;28;20047;-73
2021/06/16 06:24:01;;;;;;;7.75;2.63;;;;;;;31.88;27.32;100292.69;5052793;28;20064;-73
2021/06/16 06:26:32;;;;;;;6.60;2.80;;;;;;;32.02;26.70;100293.38;5053016;28;20048;-69
2021/06/16 06:29:01;;;;;;;7.70;2.63;;;;;;;32.73;25.87;100300.91;5052561;28;20044;-73
2021/06/16 06:31:31;;;;;;;7.32;3.10;;;;;;;32.36;25.99;100301.00;5052970;28;20095;-71
2021/06/16 06:33:59;;;;;;;6.90;3.10;;;;;;;31.82;27.12;100299.97;5052812;28;20044;-78
2021/06/16 06:36:33;;;;;;;5.80;3.15;;;;;;;31.87;27.00;100308.41;5052723;28;20045;-74
2021/06/16 06:39:01;;;;;;;6.22;2.90;;;;;;;31.93;27.03;100300.25;5052390;28;20047;-73
2021/06/16 06:41:30;;;;;;;6.85;2.75;;;;;;;31.58;27.62;100304.47;5052824;28;20052;-71
2021/06/16 06:43:58;;;;;;;5.82;2.55;;;;;;;32.55;26.03;100303.72;5052646;28;20044;-69
2021/06/16 06:46:26;;;;;;;8.95;2.90;;;;;;;32.70;25.49;100306.88;5052514;28;20071;-69
2021/06/16 06:48:56;;;;;;;6.97;2.70;;;;;;;32.66;25.66;100301.00;5052410;28;20080;-70
2021/06/16 06:51:24;;;;;;;7.65;2.67;;;;;;;32.26;26.04;100299.84;5052227;28;20067;-70
2021/06/16 06:53:53;;;;;;;6.25;2.72;;;;;;;32.27;27.21;100301.53;5053523;28;20505;-70
2021/06/16 06:56:21;;;;;;;6.07;2.38;;;;;;;32.06;25.60;100300.13;5052347;28;20049;-68
2021/06/16 06:58:52;;;;;;;5.28;2.90;;;;;;;31.41;26.98;100288.75;5052911;28;20045;-68
2021/06/16 07:01:20;;;;;;;7.85;2.80;;;;;;;30.14;29.66;100305.28;5052631;28;20076;-68
2021/06/16 07:03:48;;;;;;;9.48;5.25;;;;;;;28.80;30.87;100308.38;5052577;28;20482;-68
2021/06/16 07:06:18;;;;;;;6.95;3.03;;;;;;;28.37;31.99;100305.13;5052387;28;20134;-69
2021/06/16 07:08:47;;;;;;;8.13;3.20;;;;;;;28.37;31.93;100310.59;5052774;28;20063;-69
2021/06/16 07:11:15;;;;;;;5.85;2.75;;;;;;;28.70;31.91;100304.38;5052468;28;20099;-70
2021/06/16 07:13:43;;;;;;;10.68;3.13;;;;;;;28.34;31.50;100304.69;5051232;28;20494;-70
2021/06/16 07:16:11;;;;;;;7.38;3.30;;;;;;;28.30;32.47;100298.78;5052233;28;20099;-70
2021/06/16 07:18:40;;;;;;;6.82;3.15;;;;;;;27.90;33.13;100301.34;5052716;28;20083;-70
2021/06/16 07:21:08;;;;;;;6.10;2.70;;;;;;;27.36;33.52;100301.22;5052340;28;20045;-69
2021/06/16 07:23:39;;;;;;;7.55;2.70;;;;;;;27.11;33.01;100298.06;5052478;28;20076;-68
2021/06/16 07:26:07;;;;;;;7.82;3.15;;;;;;;27.07;34.22;100291.31;5052387;28;20069;-70
2021/06/16 07:28:36;;;;;;;7.60;3.10;;;;;;;26.97;34.04;100301.72;5052359;28;20052;-69
2021/06/16 07:31:04;;;;;;;9.40;3.10;;;;;;;27.19;33.01;100306.13;5052475;28;20636;-69
2021/06/16 07:33:32;;;;;;;7.32;3.00;;;;;;;26.46;33.70;100310.06;5052334;28;20499;-69
2021/06/16 07:36:01;;;;;;;6.57;3.13;;;;;;;26.58;32.67;100300.31;5052533;28;20037;-69
2021/06/16 07:38:30;;;;;;;5.47;3.28;;;;;;;26.60;33.05;100294.63;5052251;28;20049;-69
2021/06/16 07:41:02;;;;;;;6.75;3.00;;;;;;;26.81;33.11;100300.09;5052691;28;20051;-69
2021/06/16 07:43:30;;;;;;;9.02;2.65;;;;;;;26.70;32.62;100297.88;5052138;28;20063;-69
2021/06/16 07:45:58;;;;;;;7.80;3.20;;;;;;;26.59;32.17;100296.53;5052091;28;20076;-70
2021/06/16 07:48:29;;;;;;;7.35;2.83;;;;;;;26.32;32.50;100291.78;5052283;28;20131;-69
2021/06/16 07:50:57;;;;;;;7.03;3.30;;;;;;;26.17;32.51;100300.88;5052002;28;20041;-69
2021/06/16 07:53:25;;;;;;;8.82;2.97;;;;;;;26.24;32.80;100298.22;5050588;28;20490;-69
2021/06/16 07:55:54;;;;;;;9.38;3.28;;;;;;;26.65;31.79;100306.69;5054170;28;20072;-69
2021/06/16 07:58:25;;;;;;;7.70;2.90;;;;;;;26.45;31.68;100311.13;5055477;28;20044;-69
2021/06/16 08:00:53;;;;;;;7.22;2.90;;;;;;;26.62;31.61;100303.50;5056039;28;20091;-70
2021/06/16 08:03:21;;;;;;;6.03;3.00;;;;;;;26.30;31.44;100307.53;5055533;28;20504;-69
2021/06/16 08:05:50;;;;;;;5.88;2.80;;;;;;;26.66;32.20;100307.53;5055660;28;20045;-69
2021/06/16 08:08:32;;;;;;;6.63;2.60;;;;;;;26.57;31.39;100309.56;5056061;28;20047;-69
2021/06/16 08:11:01;;;;;;;5.20;2.40;;;;;;;26.18;29.91;100308.03;5055379;28;20281;-69
2021/06/16 08:13:32;;;;;;;5.95;2.83;;;;;;;26.15;31.16;100297.50;5055080;28;20103;-69
2021/06/16 08:16:00;;;;;;;6.13;2.70;;;;;;;26.36;30.78;100295.84;5055340;28;20095;-68
2021/06/16 08:18:29;;;;;;;4.53;2.30;;;;;;;26.21;32.05;100295.88;5055224;28;20048;-68
2021/06/16 08:20:58;;;;;;;4.63;2.63;;;;;;;26.10;32.04;100316.34;5055588;28;20371;-68
2021/06/16 08:23:27;;;;;;;5.85;2.50;;;;;;;26.13;31.96;100295.97;5054964;28;20554;-68
2021/06/16 08:25:56;;;;;;;5.22;2.50;;;;;;;26.16;31.11;100293.72;5055551;28;20478;-68
2021/06/16 08:28:24;;;;;;;4.78;2.38;;;;;;;26.08;30.19;100302.03;5054909;28;20041;-68
2021/06/16 08:30:54;;;;;;;5.88;2.40;;;;;;;26.33;30.72;100302.53;5055222;28;20084;-68
2021/06/16 08:33:22;;;;;;;6.75;2.58;;;;;;;26.46;30.70;100294.50;5054917;28;20513;-69
2021/06/16 08:35:51;;;;;;;5.40;2.47;;;;;;;26.37;30.81;100300.25;5055038;28;20412;-70
2021/06/16 08:38:19;;;;;;;3.50;2.10;;;;;;;26.47;30.68;100300.81;5054761;28;20048;-68
2021/06/16 08:40:48;;;;;;;8.23;2.85;;;;;;;26.44;31.50;100298.47;5055376;28;20044;-68
2021/06/16 08:43:16;;;;;;;6.80;2.47;;;;;;;26.35;31.43;100305.09;5054669;28;20041;-69
2021/06/16 08:45:44;;;;;;;4.43;2.30;;;;;;;26.44;31.51;100298.47;5054850;28;20090;-68
2021/06/16 08:48:14;;;;;;;6.95;2.13;;;;;;;26.55;29.87;100303.44;5054747;28;20049;-71
2021/06/16 08:50:43;;;;;;;7.80;2.50;;;;;;;26.63;30.91;100300.56;5053873;28;20049;-69
2021/06/16 08:53:11;;;;;;;4.47;2.40;;;;;;;26.74;30.96;100296.47;5054644;28;20053;-71
2021/06/16 08:55:39;;;;;;;6.32;2.47;;;;;;;26.77;29.75;100293.34;5054798;28;20094;-69
2021/06/16 08:58:08;;;;;;;6.38;2.10;;;;;;;26.54;28.52;100285.34;5054597;28;20045;-69
2021/06/16 09:00:36;;;;;;;4.22;2.10;;;;;;;26.72;29.29;100296.66;5054603;28;20490;-70
2021/06/16 09:03:05;;;;;;;4.93;2.17;;;;;;;26.96;28.18;100298.13;5054798;28;20063;-69
2021/06/16 09:05:39;;;;;;;4.30;2.00;;;;;;;26.59;27.80;100282.00;5054146;28;20045;-68
2021/06/16 09:08:18;;;;;;;4.18;1.98;;;;;;;26.42;28.30;100297.81;5054415;28;20044;-68
2021/06/16 09:10:49;;;;;;;3.20;1.80;;;;;;;26.45;28.19;100302.91;5054483;28;20044;-68
2021/06/16 09:13:28;;;;;;;4.22;2.00;;;;;;;26.73;28.95;100322.13;5054216;28;20402;-68
2021/06/16 09:15:57;;;;;;;5.07;2.40;;;;;;;26.69;29.42;100313.47;5054268;28;20041;-69
2021/06/16 09:18:27;;;;;;;5.13;2.28;;;;;;;26.57;30.03;100295.03;5053920;28;20075;-68
2021/06/16 09:20:58;;;;;;;4.68;2.20;;;;;;;26.71;30.24;100318.72;5054171;28;20045;-69
2021/06/16 09:23:29;;;;;;;5.93;2.58;;;;;;;26.54;29.55;100301.75;5052574;28;20559;-70
2021/06/16 09:26:06;;;;;;;3.38;1.90;;;;;;;26.55;30.35;100295.25;5054014;28;20565;-69
2021/06/16 09:28:35;;;;;;;6.60;2.10;;;;;;;26.47;31.02;100300.81;5053822;28;20044;-69
2021/06/16 09:31:03;;;;;;;4.88;2.00;;;;;;;26.78;29.30;100301.34;5053879;28;20565;-68
2021/06/16 09:33:33;;;;;;;3.83;2.15;;;;;;;26.66;30.02;100305.66;5053503;28;20510;-68
2021/06/16 09:36:10;;;;;;;5.22;2.22;;;;;;;26.64;30.19;100307.75;5054001;28;20053;-68
2021/06/16 09:38:38;;;;;;;6.05;2.22;;;;;;;26.63;30.67;100306.03;5053661;28;20041;-68
2021/06/16 09:41:10;;;;;;;4.75;2.13;;;;;;;26.82;30.40;100302.63;5053984;28;20041;-68
2021/06/16 09:43:40;;;;;;;8.57;2.47;;;;;;;27.02;29.81;100293.75;5053614;28;20049;-68
2021/06/16 09:46:11;;;;;;;6.45;2.15;;;;;;;26.92;29.93;100298.72;5053964;28;20067;-67
2021/06/16 09:48:41;;;;;;;5.45;2.15;;;;;;;26.84;30.58;100298.88;5053651;28;20402;-67
2021/06/16 09:51:14;;;;;;;4.03;2.10;;;;;;;26.58;29.26;100297.56;5054831;28;20045;-68
2021/06/16 09:53:55;;;;;;;3.83;1.90;;;;;;;26.69;29.04;100310.72;5061728;28;20045;-68
2021/06/16 09:56:24;;;;;;;3.80;2.03;;;;;;;26.75;28.79;100303.63;5056409;28;20041;-68
2021/06/16 09:58:53;;;;;;;3.65;1.88;;;;;;;26.68;28.19;100298.09;5052481;28;20573;-69
2021/06/16 10:01:54;;;;;;;5.05;1.88;;;;;;;26.70;28.69;100293.25;5053375;28;20045;-69
2021/06/16 10:04:38;;;;;;;3.28;1.92;;;;;;;26.52;28.74;100293.72;5053661;28;20051;-69
2021/06/16 10:07:14;;;;;;;4.13;2.28;;;;;;;26.62;28.91;100290.66;5052428;28;20060;-69
2021/06/16 10:09:50;;;;;;;4.55;2.17;;;;;;;26.76;29.02;100292.50;5053284;28;20135;-69
2021/06/16 10:12:20;;;;;;;5.95;1.95;;;;;;;26.73;28.94;100287.41;5053364;28;20044;-69
2021/06/16 10:14:49;;;;;;;4.68;2.10;;;;;;;26.84;28.48;100290.66;5053432;28;20457;-69
2021/06/16 10:17:18;;;;;;;4.35;2.08;;;;;;;26.93;29.31;100289.50;5052926;28;20051;-76
2021/06/16 10:19:49;;;;;;;3.97;2.10;;;;;;;27.07;28.67;100277.63;5052975;28;20052;-68
2021/06/16 10:22:18;;;;;;;6.03;2.35;;;;;;;27.21;28.92;100273.91;5052888;28;20494;-74
2021/06/16 10:24:46;;;;;;;3.83;2.10;;;;;;;27.22;27.38;100278.38;5053208;28;20551;-68
2021/06/16 10:27:30;;;;;;;3.35;1.92;;;;;;;27.15;28.27;100282.09;5053117;28;20056;-68
2021/06/16 10:30:05;;;;;;;5.65;2.17;;;;;;;27.04;28.19;100288.97;5053127;28;20120;-69
2021/06/16 10:32:41;;;;;;;5.78;2.03;;;;;;;27.05;29.46;100282.44;5052846;28;20456;-69
2021/06/16 10:35:11;;;;;;;6.97;2.63;;;;;;;26.77;30.27;100280.50;5053136;28;20390;-69
2021/06/16 10:37:42;;;;;;;4.00;2.20;;;;;;;26.98;30.19;100273.31;5052913;28;20037;-69
2021/06/16 10:40:43;;;;;;;5.53;2.00;;;;;;;26.99;29.88;100277.72;5053069;28;20120;-69
2021/06/16 10:43:20;;;;;;;5.72;2.35;;;;;;;27.12;30.20;100266.06;5052823;28;20445;-69
2021/06/16 10:45:54;;;;;;;4.57;2.30;;;;;;;27.12;30.16;100269.66;5052676;28;20051;-69
2021/06/16 10:48:46;;;;;;;5.55;2.30;;;;;;;27.51;30.16;100265.50;5052522;28;20345;-70
2021/06/16 10:51:38;;;;;;;4.00;2.05;;;;;;;27.43;30.22;100271.13;5052659;28;20098;-69
2021/06/16 10:54:28;;;;;;;6.03;2.20;;;;;;;27.54;30.39;100265.09;5052887;28;20049;-68
2021/06/16 10:56:59;;;;;;;4.53;2.40;;;;;;;27.32;30.34;100267.91;5052851;28;20451;-68
2021/06/16 11:00:03;;;;;;;4.97;2.53;;;;;;;27.38;29.67;100252.56;5052575;28;20118;-67
2021/06/16 11:03:01;;;;;;;4.60;2.33;;;;;;;27.34;30.34;100263.06;5052529;28;20080;-68
2021/06/16 11:05:43;;;;;;;5.50;2.72;;;;;;;27.45;30.37;100252.59;5052571;28;20045;-68
2021/06/16 11:08:50;;;;;;;4.60;2.30;;;;;;;27.49;30.91;100259.34;5052895;28;20044;-68
2021/06/16 11:11:19;;;;;;;5.00;2.50;;;;;;;27.39;29.88;100252.34;5052683;28;20041;-68
2021/06/16 11:13:47;;;;;;;4.80;2.67;;;;;;;27.60;30.22;100253.28;5052360;28;20045;-67
2021/06/16 11:16:40;;;;;;;4.40;2.15;;;;;;;27.49;29.83;100251.97;5052710;28;20098;-70
2021/06/16 11:19:24;;;;;;;4.13;2.03;;;;;;;27.73;28.46;100253.41;5052351;28;20052;-67
2021/06/16 11:21:56;;;;;;;4.47;1.80;;;;;;;27.62;27.32;100251.22;5052707;28;20041;-68
2021/06/16 11:25:02;;;;;;;2.92;1.95;;;;;;;27.64;27.49;100260.94;5052413;28;20102;-69
2021/06/16 11:27:53;;;;;;;3.72;1.80;;;;;;;27.78;28.91;100253.63;5052138;28;20046;-69
2021/06/16 11:30:30;;;;;;;4.63;1.90;;;;;;;27.59;27.30;100252.44;5053180;28;20095;-75
2021/06/16 11:33:30;;;;;;;3.88;1.42;;;;;;;27.57;25.99;100245.50;5056562;28;20041;-69
2021/06/16 11:36:00;;;;;;;3.17;1.40;;;;;;;27.54;25.70;100243.16;5056334;28;20052;-70
2021/06/16 11:38:36;;;;;;;3.83;1.52;;;;;;;27.65;26.80;100240.72;5055937;28;20398;-70
2021/06/16 11:41:10;;;;;;;3.38;1.60;;;;;;;27.68;27.49;100239.47;5055992;28;20044;-68
2021/06/16 11:43:40;;;;;;;4.07;2.15;;;;;;;27.86;27.18;100231.53;5055817;28;20057;-69